sensor_id;sensor_type;location;lat;lon;timestamp;pressure;altitude;pressure_sealevel;temperature;humidity
34081;BME280;20358;50.272;19.026;2023-02-18T00:02:27;97875.16;;;6.32;71.69
34081;BME280;20358;50.272;19.026;2023-02-18T00:05:34;97886.50;;;6.32;70.96
34081;BME280;20358;50.272;19.026;2023-02-18T00:08:41;97872.03;;;6.39;70.95
34081;BME280;20358;50.272;19.026;2023-02-18T00:11:49;97867.88;;;6.49;71.26
34081;BME280;20358;50.272;19.026;2023-02-18T00:14:58;97829.81;;;6.17;70.35
34081;BME280;20358;50.272;19.026;2023-02-18T00:18:06;97639.47;;;5.09;70.16
34081;BME280;20358;50.272;19.026;2023-02-18T00:21:11;97892.00;;;6.54;69.94
34081;BME280;20358;50.272;19.026;2023-02-18T00:24:18;97887.81;;;6.52;71.10
34081;BME280;20358;50.272;19.026;2023-02-18T00:27:23;97917.16;;;6.44;71.95
34081;BME280;20358;50.272;19.026;2023-02-18T00:30:32;97926.94;;;6.28;71.94
34081;BME280;20358;50.272;19.026;2023-02-18T00:33:38;97983.97;;;5.84;73.78
34081;BME280;20358;50.272;19.026;2023-02-18T00:36:45;98031.66;;;5.75;73.42
34081;BME280;20358;50.272;19.026;2023-02-18T00:39:51;98010.09;;;5.56;72.15
34081;BME280;20358;50.272;19.026;2023-02-18T00:42:58;98005.63;;;5.43;71.78
34081;BME280;20358;50.272;19.026;2023-02-18T00:46:08;98018.13;;;5.38;71.21
34081;BME280;20358;50.272;19.026;2023-02-18T00:49:16;98044.03;;;5.13;69.63
34081;BME280;20358;50.272;19.026;2023-02-18T00:52:21;97954.31;;;4.66;70.28
34081;BME280;20358;50.272;19.026;2023-02-18T00:55:28;97968.84;;;4.56;70.02
34081;BME280;20358;50.272;19.026;2023-02-18T00:58:34;98018.38;;;5.04;69.19
34081;BME280;20358;50.272;19.026;2023-02-18T01:01:44;98002.31;;;5.10;68.79
34081;BME280;20358;50.272;19.026;2023-02-18T01:04:50;98007.56;;;5.10;68.79
34081;BME280;20358;50.272;19.026;2023-02-18T01:07:56;98034.88;;;5.20;68.71
34081;BME280;20358;50.272;19.026;2023-02-18T01:11:04;98022.25;;;5.13;68.73
34081;BME280;20358;50.272;19.026;2023-02-18T01:14:12;98020.78;;;4.93;69.17
34081;BME280;20358;50.272;19.026;2023-02-18T01:17:21;98030.94;;;5.13;68.26
34081;BME280;20358;50.272;19.026;2023-02-18T01:20:28;98019.00;;;5.23;67.92
34081;BME280;20358;50.272;19.026;2023-02-18T01:23:35;98004.22;;;5.22;67.67
34081;BME280;20358;50.272;19.026;2023-02-18T01:26:42;97993.97;;;5.33;65.81
34081;BME280;20358;50.272;19.026;2023-02-18T01:29:49;98021.03;;;5.18;65.59
34081;BME280;20358;50.272;19.026;2023-02-18T01:33:01;98027.59;;;5.25;65.64
34081;BME280;20358;50.272;19.026;2023-02-18T01:36:07;98025.22;;;5.36;65.69
34081;BME280;20358;50.272;19.026;2023-02-18T01:39:14;98016.41;;;5.37;64.84
34081;BME280;20358;50.272;19.026;2023-02-18T01:42:23;98041.59;;;5.40;63.87
34081;BME280;20358;50.272;19.026;2023-02-18T01:46:11;98050.97;;;5.44;62.84
34081;BME280;20358;50.272;19.026;2023-02-18T01:49:25;98050.69;;;5.48;61.32
34081;BME280;20358;50.272;19.026;2023-02-18T01:52:35;98080.81;;;5.26;60.36
34081;BME280;20358;50.272;19.026;2023-02-18T01:55:42;98048.53;;;5.25;60.28
34081;BME280;20358;50.272;19.026;2023-02-18T01:58:53;98054.34;;;5.30;59.88
34081;BME280;20358;50.272;19.026;2023-02-18T02:02:00;98044.63;;;5.32;58.96
34081;BME280;20358;50.272;19.026;2023-02-18T02:05:11;98022.94;;;5.30;57.93
34081;BME280;20358;50.272;19.026;2023-02-18T02:08:17;98042.00;;;5.32;54.98
34081;BME280;20358;50.272;19.026;2023-02-18T02:11:40;98034.53;;;5.26;54.41
34081;BME280;20358;50.272;19.026;2023-02-18T02:15:31;98032.84;;;5.25;52.72
34081;BME280;20358;50.272;19.026;2023-02-18T02:18:57;98058.19;;;5.09;51.37
34081;BME280;20358;50.272;19.026;2023-02-18T02:22:33;98013.75;;;5.23;52.35
34081;BME280;20358;50.272;19.026;2023-02-18T02:26:43;98050.66;;;5.34;51.66
34081;BME280;20358;50.272;19.026;2023-02-18T02:30:39;97938.84;;;4.32;51.31
34081;BME280;20358;50.272;19.026;2023-02-18T02:34:25;98029.25;;;5.12;51.80
34081;BME280;20358;50.272;19.026;2023-02-18T02:37:53;98029.69;;;5.05;52.60
34081;BME280;20358;50.272;19.026;2023-02-18T02:41:17;98040.22;;;5.19;53.14
34081;BME280;20358;50.272;19.026;2023-02-18T02:44:38;98036.13;;;5.29;54.09
34081;BME280;20358;50.272;19.026;2023-02-18T02:48:00;98038.06;;;5.25;55.14
34081;BME280;20358;50.272;19.026;2023-02-18T02:51:19;98037.84;;;5.14;56.91
34081;BME280;20358;50.272;19.026;2023-02-18T02:54:31;98039.41;;;5.32;57.42
34081;BME280;20358;50.272;19.026;2023-02-18T02:57:44;98039.22;;;5.35;58.48
34081;BME280;20358;50.272;19.026;2023-02-18T03:01:29;98045.19;;;5.23;59.70
34081;BME280;20358;50.272;19.026;2023-02-18T03:05:13;98050.06;;;5.29;59.85
34081;BME280;20358;50.272;19.026;2023-02-18T03:08:40;98056.13;;;5.30;60.03
34081;BME280;20358;50.272;19.026;2023-02-18T03:12:09;98083.75;;;4.90;57.51
34081;BME280;20358;50.272;19.026;2023-02-18T03:15:27;98080.97;;;4.62;55.82
34081;BME280;20358;50.272;19.026;2023-02-18T03:18:45;98100.28;;;4.75;53.83
34081;BME280;20358;50.272;19.026;2023-02-18T03:22:02;98103.13;;;4.86;53.45
34081;BME280;20358;50.272;19.026;2023-02-18T03:25:16;98101.63;;;4.82;52.67
34081;BME280;20358;50.272;19.026;2023-02-18T03:28:28;98093.03;;;4.80;52.19
34081;BME280;20358;50.272;19.026;2023-02-18T03:31:39;98106.50;;;4.88;52.32
34081;BME280;20358;50.272;19.026;2023-02-18T03:34:57;98103.22;;;5.00;52.60
34081;BME280;20358;50.272;19.026;2023-02-18T03:38:14;98100.25;;;5.06;55.30
34081;BME280;20358;50.272;19.026;2023-02-18T03:41:28;98093.50;;;5.02;57.19
34081;BME280;20358;50.272;19.026;2023-02-18T03:44:34;98095.88;;;4.91;59.06
34081;BME280;20358;50.272;19.026;2023-02-18T03:47:41;98106.72;;;4.85;60.73
34081;BME280;20358;50.272;19.026;2023-02-18T03:50:49;98106.88;;;4.82;61.11
34081;BME280;20358;50.272;19.026;2023-02-18T03:53:55;98107.34;;;4.73;61.65
34081;BME280;20358;50.272;19.026;2023-02-18T03:57:04;98098.25;;;4.64;61.63
34081;BME280;20358;50.272;19.026;2023-02-18T04:00:11;98099.91;;;4.50;60.71
34081;BME280;20358;50.272;19.026;2023-02-18T04:03:17;98111.22;;;4.50;60.52
34081;BME280;20358;50.272;19.026;2023-02-18T04:06:24;98114.28;;;4.58;60.54
34081;BME280;20358;50.272;19.026;2023-02-18T04:09:29;98114.78;;;4.65;60.63
34081;BME280;20358;50.272;19.026;2023-02-18T04:12:38;98113.09;;;4.64;60.92
34081;BME280;20358;50.272;19.026;2023-02-18T04:15:45;98109.63;;;4.48;59.80
34081;BME280;20358;50.272;19.026;2023-02-18T04:18:53;98121.19;;;4.44;57.11
34081;BME280;20358;50.272;19.026;2023-02-18T04:22:00;98129.34;;;4.38;52.85
34081;BME280;20358;50.272;19.026;2023-02-18T04:25:07;98041.06;;;3.94;50.47
34081;BME280;20358;50.272;19.026;2023-02-18T04:28:16;98138.44;;;4.31;46.36
34081;BME280;20358;50.272;19.026;2023-02-18T04:31:22;98137.03;;;4.41;45.61
34081;BME280;20358;50.272;19.026;2023-02-18T04:34:28;98146.97;;;4.50;44.67
34081;BME280;20358;50.272;19.026;2023-02-18T04:37:34;98154.03;;;4.32;42.95
34081;BME280;20358;50.272;19.026;2023-02-18T04:40:40;98145.44;;;4.30;42.19
34081;BME280;20358;50.272;19.026;2023-02-18T04:43:49;98132.53;;;4.27;41.90
34081;BME280;20358;50.272;19.026;2023-02-18T04:46:55;98157.75;;;4.28;41.55
34081;BME280;20358;50.272;19.026;2023-02-18T04:50:02;98163.78;;;4.46;41.97
34081;BME280;20358;50.272;19.026;2023-02-18T04:53:08;98164.69;;;4.45;41.59
34081;BME280;20358;50.272;19.026;2023-02-18T04:56:15;98152.44;;;4.29;41.51
34081;BME280;20358;50.272;19.026;2023-02-18T04:59:24;98150.16;;;4.39;41.81
34081;BME280;20358;50.272;19.026;2023-02-18T05:02:30;98157.41;;;4.34;42.87
34081;BME280;20358;50.272;19.026;2023-02-18T05:05:36;98147.97;;;4.32;42.38
34081;BME280;20358;50.272;19.026;2023-02-18T05:08:43;98161.97;;;4.31;42.84
34081;BME280;20358;50.272;19.026;2023-02-18T05:11:49;98151.31;;;4.34;42.60
34081;BME280;20358;50.272;19.026;2023-02-18T05:14:59;98158.91;;;4.22;42.48
34081;BME280;20358;50.272;19.026;2023-02-18T05:18:04;98158.38;;;4.16;42.23
34081;BME280;20358;50.272;19.026;2023-02-18T05:21:11;98138.47;;;4.13;42.51
34081;BME280;20358;50.272;19.026;2023-02-18T05:24:16;98173.84;;;4.03;41.45
34081;BME280;20358;50.272;19.026;2023-02-18T05:27:23;98151.13;;;4.21;42.17
34081;BME280;20358;50.272;19.026;2023-02-18T05:30:31;98154.78;;;4.01;41.47
34081;BME280;20358;50.272;19.026;2023-02-18T05:33:37;98145.38;;;4.14;41.44
34081;BME280;20358;50.272;19.026;2023-02-18T05:36:43;98140.66;;;4.21;41.37
34081;BME280;20358;50.272;19.026;2023-02-18T05:39:49;98152.63;;;4.09;41.07
34081;BME280;20358;50.272;19.026;2023-02-18T05:42:55;98156.91;;;4.27;41.95
34081;BME280;20358;50.272;19.026;2023-02-18T05:46:04;98154.59;;;4.21;42.26
34081;BME280;20358;50.272;19.026;2023-02-18T05:49:10;98150.13;;;4.23;43.79
34081;BME280;20358;50.272;19.026;2023-02-18T05:52:17;98153.38;;;4.11;43.84
34081;BME280;20358;50.272;19.026;2023-02-18T05:55:23;98150.00;;;3.92;42.99
34081;BME280;20358;50.272;19.026;2023-02-18T05:58:29;98153.56;;;3.91;43.13
34081;BME280;20358;50.272;19.026;2023-02-18T06:01:37;98152.16;;;3.84;43.09
34081;BME280;20358;50.272;19.026;2023-02-18T06:04:44;98162.47;;;3.87;42.67
34081;BME280;20358;50.272;19.026;2023-02-18T06:07:49;98158.44;;;3.97;42.56
34081;BME280;20358;50.272;19.026;2023-02-18T06:10:58;98172.59;;;4.10;42.22
34081;BME280;20358;50.272;19.026;2023-02-18T06:14:04;98162.94;;;4.12;41.98
34081;BME280;20358;50.272;19.026;2023-02-18T06:17:14;98168.16;;;4.12;41.98
34081;BME280;20358;50.272;19.026;2023-02-18T06:20:20;98166.53;;;4.10;41.44
34081;BME280;20358;50.272;19.026;2023-02-18T06:23:26;98163.75;;;4.13;42.17
34081;BME280;20358;50.272;19.026;2023-02-18T06:26:32;98167.34;;;4.10;41.12
34081;BME280;20358;50.272;19.026;2023-02-18T06:29:39;98183.78;;;4.29;41.21
34081;BME280;20358;50.272;19.026;2023-02-18T06:32:47;98180.59;;;4.07;40.60
34081;BME280;20358;50.272;19.026;2023-02-18T06:35:55;98158.69;;;4.10;40.96
34081;BME280;20358;50.272;19.026;2023-02-18T06:39:03;98158.69;;;4.10;41.09
34081;BME280;20358;50.272;19.026;2023-02-18T06:42:10;98181.03;;;4.15;39.56
34081;BME280;20358;50.272;19.026;2023-02-18T06:45:16;98170.81;;;4.11;39.63
34081;BME280;20358;50.272;19.026;2023-02-18T06:48:25;98172.44;;;4.31;40.04
34081;BME280;20358;50.272;19.026;2023-02-18T06:51:30;98182.75;;;4.49;39.72
34081;BME280;20358;50.272;19.026;2023-02-18T06:54:37;98176.84;;;4.46;39.41
34081;BME280;20358;50.272;19.026;2023-02-18T06:57:42;98170.50;;;4.50;40.18
34081;BME280;20358;50.272;19.026;2023-02-18T07:00:49;98176.34;;;4.55;40.17
34081;BME280;20358;50.272;19.026;2023-02-18T07:03:58;98181.13;;;4.47;40.05
34081;BME280;20358;50.272;19.026;2023-02-18T07:07:04;98177.00;;;4.43;40.15
34081;BME280;20358;50.272;19.026;2023-02-18T07:10:10;98158.09;;;4.38;39.74
34081;BME280;20358;50.272;19.026;2023-02-18T07:13:16;98177.72;;;4.62;39.99
34081;BME280;20358;50.272;19.026;2023-02-18T07:16:22;98179.41;;;4.63;40.10
34081;BME280;20358;50.272;19.026;2023-02-18T07:19:31;98182.97;;;4.62;39.95
34081;BME280;20358;50.272;19.026;2023-02-18T07:22:36;98195.25;;;4.60;39.66
34081;BME280;20358;50.272;19.026;2023-02-18T07:25:43;98181.94;;;4.32;39.77
34081;BME280;20358;50.272;19.026;2023-02-18T07:28:48;98184.97;;;4.57;40.15
34081;BME280;20358;50.272;19.026;2023-02-18T07:31:55;98207.44;;;4.76;39.95
34081;BME280;20358;50.272;19.026;2023-02-18T07:35:05;98184.78;;;4.60;39.76
34081;BME280;20358;50.272;19.026;2023-02-18T07:38:11;98193.13;;;4.51;38.89
34081;BME280;20358;50.272;19.026;2023-02-18T07:41:19;98207.25;;;4.64;39.31
34081;BME280;20358;50.272;19.026;2023-02-18T07:44:26;98208.44;;;4.58;39.71
34081;BME280;20358;50.272;19.026;2023-02-18T07:47:32;98198.91;;;4.73;39.47
34081;BME280;20358;50.272;19.026;2023-02-18T07:50:44;98223.91;;;4.78;39.21
34081;BME280;20358;50.272;19.026;2023-02-18T07:53:50;98205.84;;;4.74;39.36
34081;BME280;20358;50.272;19.026;2023-02-18T07:56:59;98202.22;;;4.76;39.64
34081;BME280;20358;50.272;19.026;2023-02-18T08:00:06;98205.94;;;4.88;39.94
34081;BME280;20358;50.272;19.026;2023-02-18T08:03:17;98195.94;;;4.63;39.55
34081;BME280;20358;50.272;19.026;2023-02-18T08:06:31;98210.03;;;4.61;39.54
34081;BME280;20358;50.272;19.026;2023-02-18T08:09:40;98204.41;;;4.84;40.05
34081;BME280;20358;50.272;19.026;2023-02-18T08:12:46;98224.84;;;4.77;39.40
34081;BME280;20358;50.272;19.026;2023-02-18T08:15:54;98200.16;;;4.66;39.62
34081;BME280;20358;50.272;19.026;2023-02-18T08:19:01;98206.13;;;4.85;39.55
34081;BME280;20358;50.272;19.026;2023-02-18T08:22:10;98194.28;;;4.93;38.97
34081;BME280;20358;50.272;19.026;2023-02-18T08:25:16;98208.81;;;4.99;39.20
34081;BME280;20358;50.272;19.026;2023-02-18T08:28:31;98198.34;;;4.99;39.39
34081;BME280;20358;50.272;19.026;2023-02-18T08:31:37;98199.06;;;5.18;39.10
34081;BME280;20358;50.272;19.026;2023-02-18T08:34:46;98202.06;;;4.95;39.65
34081;BME280;20358;50.272;19.026;2023-02-18T08:37:55;98202.75;;;4.99;39.34
34081;BME280;20358;50.272;19.026;2023-02-18T08:41:02;98210.00;;;5.09;39.64
34081;BME280;20358;50.272;19.026;2023-02-18T08:44:10;98213.63;;;5.07;39.61
34081;BME280;20358;50.272;19.026;2023-02-18T08:47:16;98203.94;;;4.93;39.77
34081;BME280;20358;50.272;19.026;2023-02-18T08:50:41;98214.47;;;4.91;40.35
34081;BME280;20358;50.272;19.026;2023-02-18T08:53:50;98217.84;;;5.09;40.85
34081;BME280;20358;50.272;19.026;2023-02-18T08:56:56;98213.38;;;4.80;40.36
34081;BME280;20358;50.272;19.026;2023-02-18T09:00:03;98218.03;;;5.06;40.97
34081;BME280;20358;50.272;19.026;2023-02-18T09:03:11;98203.34;;;5.19;41.44
34081;BME280;20358;50.272;19.026;2023-02-18T09:06:18;98218.28;;;5.17;41.37
34081;BME280;20358;50.272;19.026;2023-02-18T09:09:27;98209.56;;;5.01;41.50
34081;BME280;20358;50.272;19.026;2023-02-18T09:12:34;98207.50;;;5.08;41.52
34081;BME280;20358;50.272;19.026;2023-02-18T09:15:39;98204.94;;;5.22;42.08
34081;BME280;20358;50.272;19.026;2023-02-18T09:18:47;98193.13;;;5.30;42.65
34081;BME280;20358;50.272;19.026;2023-02-18T09:21:53;98194.81;;;5.31;42.94
34081;BME280;20358;50.272;19.026;2023-02-18T09:25:05;98190.78;;;5.41;43.29
34081;BME280;20358;50.272;19.026;2023-02-18T09:28:11;98198.34;;;5.62;43.65
34081;BME280;20358;50.272;19.026;2023-02-18T09:31:20;98197.19;;;5.51;44.00
34081;BME280;20358;50.272;19.026;2023-02-18T09:34:27;98201.56;;;5.67;44.51
34081;BME280;20358;50.272;19.026;2023-02-18T09:37:33;98190.97;;;5.84;44.84
34081;BME280;20358;50.272;19.026;2023-02-18T09:40:47;98112.66;;;5.18;45.79
34081;BME280;20358;50.272;19.026;2023-02-18T09:44:01;98184.34;;;5.63;46.02
34081;BME280;20358;50.272;19.026;2023-02-18T09:47:12;98176.84;;;5.86;45.79
34081;BME280;20358;50.272;19.026;2023-02-18T09:50:26;98168.47;;;5.66;46.22
34081;BME280;20358;50.272;19.026;2023-02-18T09:53:34;98161.53;;;5.79;45.37
34081;BME280;20358;50.272;19.026;2023-02-18T09:56:44;98182.66;;;5.62;44.98
34081;BME280;20358;50.272;19.026;2023-02-18T09:59:59;98164.59;;;5.41;44.65
34081;BME280;20358;50.272;19.026;2023-02-18T10:03:16;98155.63;;;5.14;44.24
34081;BME280;20358;50.272;19.026;2023-02-18T10:06:25;98181.31;;;5.23;44.37
34081;BME280;20358;50.272;19.026;2023-02-18T10:09:37;98177.75;;;5.24;44.98
34081;BME280;20358;50.272;19.026;2023-02-18T10:12:47;98175.22;;;5.07;46.72
34081;BME280;20358;50.272;19.026;2023-02-18T10:15:55;98143.34;;;4.85;48.20
34081;BME280;20358;50.272;19.026;2023-02-18T10:19:08;98233.41;;;4.64;49.40
34081;BME280;20358;50.272;19.026;2023-02-18T10:22:26;98222.81;;;4.50;51.88
34081;BME280;20358;50.272;19.026;2023-02-18T10:25:42;98188.63;;;4.37;52.21
34081;BME280;20358;50.272;19.026;2023-02-18T10:28:53;98211.88;;;3.92;53.75
34081;BME280;20358;50.272;19.026;2023-02-18T10:32:06;98183.81;;;4.12;53.03
34081;BME280;20358;50.272;19.026;2023-02-18T10:35:29;98170.59;;;3.98;53.34
34081;BME280;20358;50.272;19.026;2023-02-18T10:38:54;98188.25;;;4.10;54.08
34081;BME280;20358;50.272;19.026;2023-02-18T10:42:24;98212.88;;;3.89;54.80
34081;BME280;20358;50.272;19.026;2023-02-18T10:45:47;98183.94;;;3.75;56.10
34081;BME280;20358;50.272;19.026;2023-02-18T10:49:15;98176.47;;;3.86;55.40
34081;BME280;20358;50.272;19.026;2023-02-18T10:52:42;98169.28;;;3.90;55.17
34081;BME280;20358;50.272;19.026;2023-02-18T10:55:51;98179.50;;;3.77;56.27
34081;BME280;20358;50.272;19.026;2023-02-18T10:59:01;98172.31;;;3.99;56.13
34081;BME280;20358;50.272;19.026;2023-02-18T11:02:18;98160.72;;;4.05;57.68
34081;BME280;20358;50.272;19.026;2023-02-18T11:05:26;98142.78;;;3.80;58.20
34081;BME280;20358;50.272;19.026;2023-02-18T11:08:41;98156.97;;;3.75;57.95
34081;BME280;20358;50.272;19.026;2023-02-18T11:11:49;98142.50;;;3.86;58.71
34081;BME280;20358;50.272;19.026;2023-02-18T11:15:17;98134.66;;;3.86;58.17
34081;BME280;20358;50.272;19.026;2023-02-18T11:18:36;98142.78;;;3.97;58.62
34081;BME280;20358;50.272;19.026;2023-02-18T11:21:43;98126.97;;;3.83;59.71
34081;BME280;20358;50.272;19.026;2023-02-18T11:24:54;98118.19;;;4.01;59.16
34081;BME280;20358;50.272;19.026;2023-02-18T11:28:04;98122.28;;;4.07;59.79
34081;BME280;20358;50.272;19.026;2023-02-18T11:31:19;98112.06;;;3.85;59.71
34081;BME280;20358;50.272;19.026;2023-02-18T11:34:32;98100.16;;;3.97;59.98
34081;BME280;20358;50.272;19.026;2023-02-18T11:37:38;98118.06;;;3.87;60.36
34081;BME280;20358;50.272;19.026;2023-02-18T11:40:53;98094.44;;;4.06;60.47
34081;BME280;20358;50.272;19.026;2023-02-18T11:44:05;98088.38;;;4.05;61.15
34081;BME280;20358;50.272;19.026;2023-02-18T11:47:26;98084.09;;;4.04;60.26
34081;BME280;20358;50.272;19.026;2023-02-18T11:50:37;98082.28;;;3.89;61.27
34081;BME280;20358;50.272;19.026;2023-02-18T11:53:59;98091.47;;;3.96;61.97
34081;BME280;20358;50.272;19.026;2023-02-18T11:57:11;98073.59;;;3.89;62.77
34081;BME280;20358;50.272;19.026;2023-02-18T12:00:23;98069.63;;;3.97;62.93
34081;BME280;20358;50.272;19.026;2023-02-18T12:03:45;98053.19;;;3.95;62.97
34081;BME280;20358;50.272;19.026;2023-02-18T12:07:13;98059.69;;;3.88;64.26
34081;BME280;20358;50.272;19.026;2023-02-18T12:10:26;98041.25;;;3.57;65.81
34081;BME280;20358;50.272;19.026;2023-02-18T12:13:41;98051.88;;;3.37;67.60
34081;BME280;20358;50.272;19.026;2023-02-18T12:17:25;98046.94;;;3.31;67.76
34081;BME280;20358;50.272;19.026;2023-02-18T12:21:11;98035.66;;;3.30;68.47
34081;BME280;20358;50.272;19.026;2023-02-18T12:24:44;98027.91;;;3.29;69.81
34081;BME280;20358;50.272;19.026;2023-02-18T12:28:25;98029.22;;;3.20;70.04
34081;BME280;20358;50.272;19.026;2023-02-18T12:31:56;98012.56;;;3.23;69.39
34081;BME280;20358;50.272;19.026;2023-02-18T12:35:30;98004.41;;;3.12;70.16
34081;BME280;20358;50.272;19.026;2023-02-18T12:38:53;97990.16;;;3.19;71.78
34081;BME280;20358;50.272;19.026;2023-02-18T12:42:29;97980.56;;;3.19;70.98
34081;BME280;20358;50.272;19.026;2023-02-18T12:53:43;97915.72;;;3.12;71.62
34081;BME280;20358;50.272;19.026;2023-02-18T12:57:24;97921.06;;;3.26;71.51
34081;BME280;20358;50.272;19.026;2023-02-18T13:00:59;97913.09;;;3.29;71.35
34081;BME280;20358;50.272;19.026;2023-02-18T13:04:43;97917.16;;;3.34;70.12
34081;BME280;20358;50.272;19.026;2023-02-18T13:11:43;97886.50;;;3.38;70.60
34081;BME280;20358;50.272;19.026;2023-02-18T13:15:02;97889.91;;;3.40;70.66
34081;BME280;20358;50.272;19.026;2023-02-18T13:18:20;97880.81;;;3.47;70.26
34081;BME280;20358;50.272;19.026;2023-02-18T13:21:31;97875.06;;;3.56;70.56
34081;BME280;20358;50.272;19.026;2023-02-18T13:24:39;97858.59;;;3.71;69.92
34081;BME280;20358;50.272;19.026;2023-02-18T13:27:58;97860.31;;;3.88;70.87
34081;BME280;20358;50.272;19.026;2023-02-18T13:31:31;97842.97;;;4.02;70.39
34081;BME280;20358;50.272;19.026;2023-02-18T13:34:48;97807.81;;;3.92;69.61
34081;BME280;20358;50.272;19.026;2023-02-18T13:38:25;97832.09;;;4.24;69.01
34081;BME280;20358;50.272;19.026;2023-02-18T13:41:47;97827.84;;;4.23;68.54
34081;BME280;20358;50.272;19.026;2023-02-18T13:45:03;97818.97;;;4.25;69.29
34081;BME280;20358;50.272;19.026;2023-02-18T13:48:33;97786.59;;;4.28;69.89
34081;BME280;20358;50.272;19.026;2023-02-18T13:51:49;97799.69;;;4.42;69.11
34081;BME280;20358;50.272;19.026;2023-02-18T13:54:57;97795.47;;;4.40;67.81
34081;BME280;20358;50.272;19.026;2023-02-18T13:58:12;97779.78;;;4.40;68.37
34081;BME280;20358;50.272;19.026;2023-02-18T14:01:37;97758.19;;;4.36;69.37
34081;BME280;20358;50.272;19.026;2023-02-18T14:04:54;97771.50;;;4.47;68.85
34081;BME280;20358;50.272;19.026;2023-02-18T14:08:12;97763.75;;;4.46;67.92
34081;BME280;20358;50.272;19.026;2023-02-18T14:11:47;97758.69;;;4.43;68.00
34081;BME280;20358;50.272;19.026;2023-02-18T14:14:57;97749.09;;;4.43;67.97
34081;BME280;20358;50.272;19.026;2023-02-18T14:18:09;97739.66;;;4.41;67.67
34081;BME280;20358;50.272;19.026;2023-02-18T14:21:42;97720.03;;;4.34;68.60
34081;BME280;20358;50.272;19.026;2023-02-18T14:24:56;97744.16;;;4.39;68.59
34081;BME280;20358;50.272;19.026;2023-02-18T14:28:35;97717.41;;;4.19;69.01
34081;BME280;20358;50.272;19.026;2023-02-18T14:31:52;97693.31;;;4.28;69.68
34081;BME280;20358;50.272;19.026;2023-02-18T14:35:16;97691.28;;;4.34;68.88
34081;BME280;20358;50.272;19.026;2023-02-18T14:38:45;97675.22;;;4.40;69.49
34081;BME280;20358;50.272;19.026;2023-02-18T14:42:09;97656.47;;;4.47;69.28
34081;BME280;20358;50.272;19.026;2023-02-18T14:45:36;97645.47;;;4.56;69.78
34081;BME280;20358;50.272;19.026;2023-02-18T14:49:15;97643.47;;;4.60;69.67
34081;BME280;20358;50.272;19.026;2023-02-18T14:52:39;97624.63;;;4.69;69.49
34081;BME280;20358;50.272;19.026;2023-02-18T14:55:56;97629.25;;;4.78;69.44
34081;BME280;20358;50.272;19.026;2023-02-18T14:59:05;97615.69;;;4.85;68.58
34081;BME280;20358;50.272;19.026;2023-02-18T15:02:19;97603.16;;;4.90;68.89
34081;BME280;20358;50.272;19.026;2023-02-18T15:05:31;97602.03;;;4.95;68.35
34081;BME280;20358;50.272;19.026;2023-02-18T15:08:41;97595.78;;;4.97;68.57
34081;BME280;20358;50.272;19.026;2023-02-18T15:11:55;97590.53;;;4.97;68.30
34081;BME280;20358;50.272;19.026;2023-02-18T15:15:06;97583.63;;;4.96;68.81
34081;BME280;20358;50.272;19.026;2023-02-18T15:18:26;97573.91;;;4.98;69.21
34081;BME280;20358;50.272;19.026;2023-02-18T15:21:38;97561.09;;;4.93;69.35
34081;BME280;20358;50.272;19.026;2023-02-18T15:24:48;97541.53;;;4.86;70.09
34081;BME280;20358;50.272;19.026;2023-02-18T15:28:01;97544.88;;;4.88;70.62
34081;BME280;20358;50.272;19.026;2023-02-18T15:31:10;97545.81;;;4.87;71.03
34081;BME280;20358;50.272;19.026;2023-02-18T15:34:29;97532.63;;;4.89;71.78
34081;BME280;20358;50.272;19.026;2023-02-18T15:37:44;97443.97;;;4.45;72.21
34081;BME280;20358;50.272;19.026;2023-02-18T15:40:52;97514.66;;;4.97;72.73
34081;BME280;20358;50.272;19.026;2023-02-18T15:44:06;97084.91;;;2.51;72.83
34081;BME280;20358;50.272;19.026;2023-02-18T15:47:12;97505.47;;;5.04;72.99
34081;BME280;20358;50.272;19.026;2023-02-18T15:50:24;97509.03;;;5.03;73.49
34081;BME280;20358;50.272;19.026;2023-02-18T15:53:37;97500.66;;;4.98;74.02
34081;BME280;20358;50.272;19.026;2023-02-18T15:56:51;97508.38;;;4.87;74.76
34081;BME280;20358;50.272;19.026;2023-02-18T16:00:05;97497.91;;;4.87;75.59
34081;BME280;20358;50.272;19.026;2023-02-18T16:03:24;97491.16;;;4.83;77.01
34081;BME280;20358;50.272;19.026;2023-02-18T16:06:36;97481.56;;;4.83;78.32
34081;BME280;20358;50.272;19.026;2023-02-18T16:09:49;97487.66;;;4.97;78.29
34081;BME280;20358;50.272;19.026;2023-02-18T16:13:03;97479.09;;;5.07;78.84
34081;BME280;20358;50.272;19.026;2023-02-18T16:16:23;97473.47;;;5.13;78.82
34081;BME280;20358;50.272;19.026;2023-02-18T16:19:32;97486.66;;;5.24;79.26
34081;BME280;20358;50.272;19.026;2023-02-18T16:22:44;97477.06;;;5.37;78.23
34081;BME280;20358;50.272;19.026;2023-02-18T16:25:50;97490.69;;;5.42;78.89
34081;BME280;20358;50.272;19.026;2023-02-18T16:29:04;97484.88;;;5.51;78.94
34081;BME280;20358;50.272;19.026;2023-02-18T16:32:18;97493.25;;;5.57;78.70
34081;BME280;20358;50.272;19.026;2023-02-18T16:35:27;97477.13;;;5.63;78.76
34081;BME280;20358;50.272;19.026;2023-02-18T16:38:50;97487.28;;;5.67;79.14
34081;BME280;20358;50.272;19.026;2023-02-18T16:41:57;97489.47;;;5.61;79.52
34081;BME280;20358;50.272;19.026;2023-02-18T16:45:03;97489.25;;;5.64;79.53
34081;BME280;20358;50.272;19.026;2023-02-18T16:48:17;97494.28;;;5.54;79.94
34081;BME280;20358;50.272;19.026;2023-02-18T16:51:33;97504.16;;;5.63;79.71
34081;BME280;20358;50.272;19.026;2023-02-18T16:54:40;97491.56;;;5.56;80.07
34081;BME280;20358;50.272;19.026;2023-02-18T16:57:46;97484.00;;;5.64;79.95
34081;BME280;20358;50.272;19.026;2023-02-18T17:00:53;97350.56;;;4.74;80.36
34081;BME280;20358;50.272;19.026;2023-02-18T17:04:03;97495.84;;;5.57;80.78
34081;BME280;20358;50.272;19.026;2023-02-18T17:07:11;97502.88;;;5.56;80.44
34081;BME280;20358;50.272;19.026;2023-02-18T17:10:18;97507.59;;;5.64;80.21
34081;BME280;20358;50.272;19.026;2023-02-18T17:13:27;97494.94;;;5.58;79.57
34081;BME280;20358;50.272;19.026;2023-02-18T17:16:35;97484.84;;;5.39;79.35